sensor_id;sensor_type;location;lat;lon;timestamp;temperature;humidity
13330;DHT22;6734;48.638;8.896;2023-04-24T00:04:42;9.80;99.90
13330;DHT22;6734;48.638;8.896;2023-04-24T00:07:10;9.80;99.90
13330;DHT22;6734;48.638;8.896;2023-04-24T00:09:36;9.90;99.90
13330;DHT22;6734;48.638;8.896;2023-04-24T00:12:02;9.90;99.90
13330;DHT22;6734;48.638;8.896;2023-04-24T00:24:17;9.80;99.90
13330;DHT22;6734;48.638;8.896;2023-04-24T00:29:09;9.90;99.90
13330;DHT22;6734;48.638;8.896;2023-04-24T00:34:01;9.90;99.90
13330;DHT22;6734;48.638;8.896;2023-04-24T00:36:27;9.90;99.90
13330;DHT22;6734;48.638;8.896;2023-04-24T00:41:19;9.80;99.90
13330;DHT22;6734;48.638;8.896;2023-04-24T00:51:07;9.80;99.90
13330;DHT22;6734;48.638;8.896;2023-04-24T00:53:32;9.80;99.90
13330;DHT22;6734;48.638;8.896;2023-04-24T00:58:24;9.80;99.90
13330;DHT22;6734;48.638;8.896;2023-04-24T01:03:19;9.70;99.90
13330;DHT22;6734;48.638;8.896;2023-04-24T01:05:46;9.70;99.90
13330;DHT22;6734;48.638;8.896;2023-04-24T01:08:12;9.70;99.90
13330;DHT22;6734;48.638;8.896;2023-04-24T01:10:38;9.70;99.90
13330;DHT22;6734;48.638;8.896;2023-04-24T01:17:57;9.70;99.90
13330;DHT22;6734;48.638;8.896;2023-04-24T01:20:24;9.60;99.90
13330;DHT22;6734;48.638;8.896;2023-04-24T01:22:52;9.60;99.90
13330;DHT22;6734;48.638;8.896;2023-04-24T01:25:18;9.50;99.90
13330;DHT22;6734;48.638;8.896;2023-04-24T01:27:44;9.50;99.90
13330;DHT22;6734;48.638;8.896;2023-04-24T01:30:10;9.50;99.90
13330;DHT22;6734;48.638;8.896;2023-04-24T01:32:36;9.50;99.90
13330;DHT22;6734;48.638;8.896;2023-04-24T01:35:03;9.50;99.90
13330;DHT22;6734;48.638;8.896;2023-04-24T01:37:29;9.40;99.90
13330;DHT22;6734;48.638;8.896;2023-04-24T01:39:54;9.30;99.90
13330;DHT22;6734;48.638;8.896;2023-04-24T01:47:13;9.40;99.90
13330;DHT22;6734;48.638;8.896;2023-04-24T01:49:39;9.30;99.90
13330;DHT22;6734;48.638;8.896;2023-04-24T01:56:57;9.20;99.90
13330;DHT22;6734;48.638;8.896;2023-04-24T02:01:49;9.20;99.90
13330;DHT22;6734;48.638;8.896;2023-04-24T02:06:40;9.10;99.90
13330;DHT22;6734;48.638;8.896;2023-04-24T02:11:32;9.10;99.90
13330;DHT22;6734;48.638;8.896;2023-04-24T02:13:58;9.00;99.90
13330;DHT22;6734;48.638;8.896;2023-04-24T02:21:16;9.10;99.90
13330;DHT22;6734;48.638;8.896;2023-04-24T02:23:41;9.10;99.90
13330;DHT22;6734;48.638;8.896;2023-04-24T02:26:07;9.20;99.90
13330;DHT22;6734;48.638;8.896;2023-04-24T02:33:25;9.40;99.90
13330;DHT22;6734;48.638;8.896;2023-04-24T02:38:17;9.20;99.90
13330;DHT22;6734;48.638;8.896;2023-04-24T02:40:42;9.20;99.90
13330;DHT22;6734;48.638;8.896;2023-04-24T02:45:34;9.20;99.90
13330;DHT22;6734;48.638;8.896;2023-04-24T02:50:26;9.20;99.90
13330;DHT22;6734;48.638;8.896;2023-04-24T02:55:17;9.10;99.90
13330;DHT22;6734;48.638;8.896;2023-04-24T03:00:09;9.10;99.90
13330;DHT22;6734;48.638;8.896;2023-04-24T03:02:35;9.10;99.90
13330;DHT22;6734;48.638;8.896;2023-04-24T03:09:53;9.00;99.90
13330;DHT22;6734;48.638;8.896;2023-04-24T03:12:19;9.00;99.90
13330;DHT22;6734;48.638;8.896;2023-04-24T03:19:36;9.00;99.90
13330;DHT22;6734;48.638;8.896;2023-04-24T03:24:30;8.90;99.90
13330;DHT22;6734;48.638;8.896;2023-04-24T03:29:22;8.90;99.90
13330;DHT22;6734;48.638;8.896;2023-04-24T03:34:13;8.80;99.90
13330;DHT22;6734;48.638;8.896;2023-04-24T03:36:39;8.80;99.90
13330;DHT22;6734;48.638;8.896;2023-04-24T03:51:15;8.80;99.90
13330;DHT22;6734;48.638;8.896;2023-04-24T03:56:06;8.70;99.90
13330;DHT22;6734;48.638;8.896;2023-04-24T03:58:32;8.70;99.90
13330;DHT22;6734;48.638;8.896;2023-04-24T04:00:57;8.70;99.90
13330;DHT22;6734;48.638;8.896;2023-04-24T04:03:24;8.80;99.90
13330;DHT22;6734;48.638;8.896;2023-04-24T04:08:16;8.70;99.90
13330;DHT22;6734;48.638;8.896;2023-04-24T04:13:08;8.80;99.90
13330;DHT22;6734;48.638;8.896;2023-04-24T04:17:59;8.80;99.90
13330;DHT22;6734;48.638;8.896;2023-04-24T04:30:13;8.70;99.90
13330;DHT22;6734;48.638;8.896;2023-04-24T04:35:05;8.30;99.90
13330;DHT22;6734;48.638;8.896;2023-04-24T04:47:17;7.90;99.90
13330;DHT22;6734;48.638;8.896;2023-04-24T04:49:43;7.90;99.90
13330;DHT22;6734;48.638;8.896;2023-04-24T04:52:09;7.80;99.90
13330;DHT22;6734;48.638;8.896;2023-04-24T05:01:53;8.00;99.90
13330;DHT22;6734;48.638;8.896;2023-04-24T05:04:18;7.90;99.90
13330;DHT22;6734;48.638;8.896;2023-04-24T05:09:10;7.90;99.90
13330;DHT22;6734;48.638;8.896;2023-04-24T05:14:01;7.80;99.90
13330;DHT22;6734;48.638;8.896;2023-04-24T05:23:45;7.60;99.90
13330;DHT22;6734;48.638;8.896;2023-04-24T05:31:03;7.80;99.90
13330;DHT22;6734;48.638;8.896;2023-04-24T05:33:28;7.80;99.90
13330;DHT22;6734;48.638;8.896;2023-04-24T05:38:20;7.70;99.90
13330;DHT22;6734;48.638;8.896;2023-04-24T05:40:46;7.80;99.90
13330;DHT22;6734;48.638;8.896;2023-04-24T05:43:12;7.80;99.90
13330;DHT22;6734;48.638;8.896;2023-04-24T05:45:38;7.80;99.90
13330;DHT22;6734;48.638;8.896;2023-04-24T05:48:04;7.80;99.90
13330;DHT22;6734;48.638;8.896;2023-04-24T05:52:55;8.00;99.90
13330;DHT22;6734;48.638;8.896;2023-04-24T05:57:49;8.00;99.90
13330;DHT22;6734;48.638;8.896;2023-04-24T06:05:09;8.60;99.90
13330;DHT22;6734;48.638;8.896;2023-04-24T06:12:26;9.30;99.90
13330;DHT22;6734;48.638;8.896;2023-04-24T06:17:20;9.40;99.90
13330;DHT22;6734;48.638;8.896;2023-04-24T06:19:46;9.50;99.90
13330;DHT22;6734;48.638;8.896;2023-04-24T06:27:05;10.00;99.90
13330;DHT22;6734;48.638;8.896;2023-04-24T06:31:57;10.30;99.90
13330;DHT22;6734;48.638;8.896;2023-04-24T06:34:22;10.30;99.90
13330;DHT22;6734;48.638;8.896;2023-04-24T06:39:14;10.50;99.90
13330;DHT22;6734;48.638;8.896;2023-04-24T06:41:40;10.70;99.90
13330;DHT22;6734;48.638;8.896;2023-04-24T06:44:05;10.60;99.90
13330;DHT22;6734;48.638;8.896;2023-04-24T06:51:24;10.10;99.90
13330;DHT22;6734;48.638;8.896;2023-04-24T06:53:50;9.90;99.90
13330;DHT22;6734;48.638;8.896;2023-04-24T06:56:16;9.70;99.90
13330;DHT22;6734;48.638;8.896;2023-04-24T07:01:08;9.20;99.90
13330;DHT22;6734;48.638;8.896;2023-04-24T07:03:33;8.70;99.90
13330;DHT22;6734;48.638;8.896;2023-04-24T07:05:59;8.60;99.90
13330;DHT22;6734;48.638;8.896;2023-04-24T07:08:24;8.50;99.90
13330;DHT22;6734;48.638;8.896;2023-04-24T07:10:50;8.40;99.90
13330;DHT22;6734;48.638;8.896;2023-04-24T07:15:43;8.50;99.90
13330;DHT22;6734;48.638;8.896;2023-04-24T07:18:08;8.70;99.90
13330;DHT22;6734;48.638;8.896;2023-04-24T07:23:00;8.90;99.90
13330;DHT22;6734;48.638;8.896;2023-04-24T07:25:26;9.00;99.90
13330;DHT22;6734;48.638;8.896;2023-04-24T07:32:44;9.30;99.90
13330;DHT22;6734;48.638;8.896;2023-04-24T07:35:09;9.20;99.90
13330;DHT22;6734;48.638;8.896;2023-04-24T07:37:35;9.20;99.90
13330;DHT22;6734;48.638;8.896;2023-04-24T07:42:28;9.10;99.90
13330;DHT22;6734;48.638;8.896;2023-04-24T07:44:55;9.30;99.90
13330;DHT22;6734;48.638;8.896;2023-04-24T07:49:47;9.50;99.90
13330;DHT22;6734;48.638;8.896;2023-04-24T08:04:24;9.30;99.90
13330;DHT22;6734;48.638;8.896;2023-04-24T08:06:49;9.30;99.90
13330;DHT22;6734;48.638;8.896;2023-04-24T08:21:25;9.50;99.90
13330;DHT22;6734;48.638;8.896;2023-04-24T08:23:52;9.80;99.90
13330;DHT22;6734;48.638;8.896;2023-04-24T08:28:44;9.80;99.90
13330;DHT22;6734;48.638;8.896;2023-04-24T08:31:10;10.00;99.90
13330;DHT22;6734;48.638;8.896;2023-04-24T08:36:05;9.90;99.90
13330;DHT22;6734;48.638;8.896;2023-04-24T08:43:27;9.80;99.90
13330;DHT22;6734;48.638;8.896;2023-04-24T08:45:55;9.70;99.90
13330;DHT22;6734;48.638;8.896;2023-04-24T08:48:22;9.80;99.90
13330;DHT22;6734;48.638;8.896;2023-04-24T08:53:14;9.90;99.90
13330;DHT22;6734;48.638;8.896;2023-04-24T08:55:41;9.60;99.90
13330;DHT22;6734;48.638;8.896;2023-04-24T09:00:35;9.50;99.90
13330;DHT22;6734;48.638;8.896;2023-04-24T09:07:55;9.80;99.90
13330;DHT22;6734;48.638;8.896;2023-04-24T09:12:51;10.10;99.90
13330;DHT22;6734;48.638;8.896;2023-04-24T09:15:19;10.10;99.90
13330;DHT22;6734;48.638;8.896;2023-04-24T09:17:46;10.20;99.90
13330;DHT22;6734;48.638;8.896;2023-04-24T09:20:11;10.00;99.90
13330;DHT22;6734;48.638;8.896;2023-04-24T09:25:08;10.10;99.90
13330;DHT22;6734;48.638;8.896;2023-04-24T09:37:42;11.10;99.90
13330;DHT22;6734;48.638;8.896;2023-04-24T09:47:27;10.90;99.90
13330;DHT22;6734;48.638;8.896;2023-04-24T09:49:57;10.90;99.90
13330;DHT22;6734;48.638;8.896;2023-04-24T09:54:53;10.60;99.90
13330;DHT22;6734;48.638;8.896;2023-04-24T09:57:19;10.60;99.90
13330;DHT22;6734;48.638;8.896;2023-04-24T09:59:46;10.80;99.90
13330;DHT22;6734;48.638;8.896;2023-04-24T10:02:18;11.00;99.90
13330;DHT22;6734;48.638;8.896;2023-04-24T10:04:56;11.20;99.90
13330;DHT22;6734;48.638;8.896;2023-04-24T10:09:52;10.70;99.90
13330;DHT22;6734;48.638;8.896;2023-04-24T10:14:45;10.60;99.90
13330;DHT22;6734;48.638;8.896;2023-04-24T10:17:12;10.80;99.90
13330;DHT22;6734;48.638;8.896;2023-04-24T10:19:38;10.70;99.90
13330;DHT22;6734;48.638;8.896;2023-04-24T10:24:30;10.40;99.90
13330;DHT22;6734;48.638;8.896;2023-04-24T10:36:47;10.40;99.90
13330;DHT22;6734;48.638;8.896;2023-04-24T10:44:16;9.90;99.90
13330;DHT22;6734;48.638;8.896;2023-04-24T10:59:24;10.40;99.90
13330;DHT22;6734;48.638;8.896;2023-04-24T11:06:57;10.90;99.90
13330;DHT22;6734;48.638;8.896;2023-04-24T11:09:26;11.00;99.90
13330;DHT22;6734;48.638;8.896;2023-04-24T11:14:28;10.90;99.90
13330;DHT22;6734;48.638;8.896;2023-04-24T11:16:54;10.70;99.90
13330;DHT22;6734;48.638;8.896;2023-04-24T11:22:14;10.30;99.90
13330;DHT22;6734;48.638;8.896;2023-04-24T11:27:17;10.90;99.90
13330;DHT22;6734;48.638;8.896;2023-04-24T11:32:56;11.00;99.90
13330;DHT22;6734;48.638;8.896;2023-04-24T11:35:22;10.80;99.90
13330;DHT22;6734;48.638;8.896;2023-04-24T11:45:21;11.60;99.90
13330;DHT22;6734;48.638;8.896;2023-04-24T11:50:14;10.50;99.90
13330;DHT22;6734;48.638;8.896;2023-04-24T11:55:24;10.50;99.90
13330;DHT22;6734;48.638;8.896;2023-04-24T11:57:54;10.10;99.90
13330;DHT22;6734;48.638;8.896;2023-04-24T12:00:24;9.90;99.90
13330;DHT22;6734;48.638;8.896;2023-04-24T12:07:51;10.00;99.90
13330;DHT22;6734;48.638;8.896;2023-04-24T12:10:24;10.00;99.90
13330;DHT22;6734;48.638;8.896;2023-04-24T12:12:51;10.30;99.90
13330;DHT22;6734;48.638;8.896;2023-04-24T12:15:21;10.20;99.90
13330;DHT22;6734;48.638;8.896;2023-04-24T12:17:47;10.20;99.90
13330;DHT22;6734;48.638;8.896;2023-04-24T12:25:32;10.10;99.90
13330;DHT22;6734;48.638;8.896;2023-04-24T12:38:13;12.30;99.90
13330;DHT22;6734;48.638;8.896;2023-04-24T12:43:19;10.90;99.90
13330;DHT22;6734;48.638;8.896;2023-04-24T12:45:47;10.90;99.90
13330;DHT22;6734;48.638;8.896;2023-04-24T12:50:42;10.50;99.90
13330;DHT22;6734;48.638;8.896;2023-04-24T12:53:08;10.40;99.90
13330;DHT22;6734;48.638;8.896;2023-04-24T12:55:35;10.30;99.90
13330;DHT22;6734;48.638;8.896;2023-04-24T13:00:28;10.40;99.90
13330;DHT22;6734;48.638;8.896;2023-04-24T13:02:53;10.20;99.90
13330;DHT22;6734;48.638;8.896;2023-04-24T13:05:19;10.20;99.90
13330;DHT22;6734;48.638;8.896;2023-04-24T13:10:11;10.00;99.90
13330;DHT22;6734;48.638;8.896;2023-04-24T13:12:38;9.80;99.90
13330;DHT22;6734;48.638;8.896;2023-04-24T13:22:22;9.80;99.90
13330;DHT22;6734;48.638;8.896;2023-04-24T13:24:48;10.00;99.90
13330;DHT22;6734;48.638;8.896;2023-04-24T13:29:40;9.90;99.90
13330;DHT22;6734;48.638;8.896;2023-04-24T13:39:26;10.10;99.90
13330;DHT22;6734;48.638;8.896;2023-04-24T13:41:52;10.10;99.90
13330;DHT22;6734;48.638;8.896;2023-04-24T13:46:46;10.20;99.90
13330;DHT22;6734;48.638;8.896;2023-04-24T13:51:38;10.30;99.90
13330;DHT22;6734;48.638;8.896;2023-04-24T13:54:04;10.10;99.90
13330;DHT22;6734;48.638;8.896;2023-04-24T13:58:56;9.90;99.90
13330;DHT22;6734;48.638;8.896;2023-04-24T14:01:21;9.90;99.90
13330;DHT22;6734;48.638;8.896;2023-04-24T14:11:08;10.20;99.90
13330;DHT22;6734;48.638;8.896;2023-04-24T14:13:36;10.20;99.90
13330;DHT22;6734;48.638;8.896;2023-04-24T14:16:03;10.30;99.90
13330;DHT22;6734;48.638;8.896;2023-04-24T14:20:54;10.80;99.90
13330;DHT22;6734;48.638;8.896;2023-04-24T14:33:08;10.60;99.90
13330;DHT22;6734;48.638;8.896;2023-04-24T14:47:45;10.50;99.90
13330;DHT22;6734;48.638;8.896;2023-04-24T14:52:38;10.40;99.90
13330;DHT22;6734;48.638;8.896;2023-04-24T14:55:04;10.20;99.90
13330;DHT22;6734;48.638;8.896;2023-04-24T15:09:40;10.30;99.90
13330;DHT22;6734;48.638;8.896;2023-04-24T15:16:58;10.60;99.90
13330;DHT22;6734;48.638;8.896;2023-04-24T15:21:49;10.80;99.90
13330;DHT22;6734;48.638;8.896;2023-04-24T15:26:41;11.00;99.90
13330;DHT22;6734;48.638;8.896;2023-04-24T15:29:06;10.90;99.90
13330;DHT22;6734;48.638;8.896;2023-04-24T15:33:58;10.70;99.90
13330;DHT22;6734;48.638;8.896;2023-04-24T15:36:23;10.80;99.90
13330;DHT22;6734;48.638;8.896;2023-04-24T15:43:41;10.80;99.90
13330;DHT22;6734;48.638;8.896;2023-04-24T15:53:26;13.30;99.90
13330;DHT22;6734;48.638;8.896;2023-04-24T15:55:52;12.60;99.90
13330;DHT22;6734;48.638;8.896;2023-04-24T15:58:20;12.30;99.90
13330;DHT22;6734;48.638;8.896;2023-04-24T16:00:46;12.50;99.90
13330;DHT22;6734;48.638;8.896;2023-04-24T16:12:56;11.70;99.90
13330;DHT22;6734;48.638;8.896;2023-04-24T16:25:08;10.60;99.90
13330;DHT22;6734;48.638;8.896;2023-04-24T16:27:34;10.50;99.90
13330;DHT22;6734;48.638;8.896;2023-04-24T16:32:26;10.60;99.90
13330;DHT22;6734;48.638;8.896;2023-04-24T16:34:52;10.70;99.90
13330;DHT22;6734;48.638;8.896;2023-04-24T16:49:30;14.90;99.90
13330;DHT22;6734;48.638;8.896;2023-04-24T16:51:57;15.50;99.90
13330;DHT22;6734;48.638;8.896;2023-04-24T16:56:50;14.90;99.90
13330;DHT22;6734;48.638;8.896;2023-04-24T17:06:33;14.70;99.90
13330;DHT22;6734;48.638;8.896;2023-04-24T17:13:52;14.40;99.90
13330;DHT22;6734;48.638;8.896;2023-04-24T17:16:17;13.70;99.90
13330;DHT22;6734;48.638;8.896;2023-04-24T17:30:55;11.20;99.90
13330;DHT22;6734;48.638;8.896;2023-04-24T17:35:49;10.60;99.90
13330;DHT22;6734;48.638;8.896;2023-04-24T17:40:42;10.30;99.90
13330;DHT22;6734;48.638;8.896;2023-04-24T17:43:07;10.30;99.90
13330;DHT22;6734;48.638;8.896;2023-04-24T17:55:17;9.80;99.90
13330;DHT22;6734;48.638;8.896;2023-04-24T18:00:09;9.70;99.90
13330;DHT22;6734;48.638;8.896;2023-04-24T18:02:35;9.50;99.90
13330;DHT22;6734;48.638;8.896;2023-04-24T18:09:53;9.30;99.90
13330;DHT22;6734;48.638;8.896;2023-04-24T18:12:18;9.30;99.90
13330;DHT22;6734;48.638;8.896;2023-04-24T18:22:02;9.20;99.90
13330;DHT22;6734;48.638;8.896;2023-04-24T18:26:55;9.00;99.90
13330;DHT22;6734;48.638;8.896;2023-04-24T18:31:47;9.00;99.90
13330;DHT22;6734;48.638;8.896;2023-04-24T18:36:40;8.90;99.90
13330;DHT22;6734;48.638;8.896;2023-04-24T18:39:05;8.90;99.90
13330;DHT22;6734;48.638;8.896;2023-04-24T18:43:57;8.80;99.90
13330;DHT22;6734;48.638;8.896;2023-04-24T18:51:15;8.20;99.90
13330;DHT22;6734;48.638;8.896;2023-04-24T18:56:07;8.00;99.90
13330;DHT22;6734;48.638;8.896;2023-04-24T19:18:02;7.20;99.90
13330;DHT22;6734;48.638;8.896;2023-04-24T19:25:19;7.00;99.90
13330;DHT22;6734;48.638;8.896;2023-04-24T19:30:11;6.80;99.90
13330;DHT22;6734;48.638;8.896;2023-04-24T19:35:03;6.70;99.90
13330;DHT22;6734;48.638;8.896;2023-04-24T19:39:56;6.60;99.90
13330;DHT22;6734;48.638;8.896;2023-04-24T19:42:24;6.50;99.90
13330;DHT22;6734;48.638;8.896;2023-04-24T19:49:42;6.30;99.90
13330;DHT22;6734;48.638;8.896;2023-04-24T19:54:34;6.30;99.90
13330;DHT22;6734;48.638;8.896;2023-04-24T19:59:26;6.30;99.90
13330;DHT22;6734;48.638;8.896;2023-04-24T20:11:39;7.20;99.90
13330;DHT22;6734;48.638;8.896;2023-04-24T20:31:08;7.80;99.90
13330;DHT22;6734;48.638;8.896;2023-04-24T20:36:02;7.80;99.90
13330;DHT22;6734;48.638;8.896;2023-04-24T20:40:55;7.80;99.90
13330;DHT22;6734;48.638;8.896;2023-04-24T20:43:21;7.80;99.90
13330;DHT22;6734;48.638;8.896;2023-04-24T20:48:15;7.80;99.90
13330;DHT22;6734;48.638;8.896;2023-04-24T20:53:07;7.80;99.90
13330;DHT22;6734;48.638;8.896;2023-04-24T20:57:59;7.70;99.90
13330;DHT22;6734;48.638;8.896;2023-04-24T21:00:26;7.70;99.90
13330;DHT22;6734;48.638;8.896;2023-04-24T21:07:44;7.80;99.90
13330;DHT22;6734;48.638;8.896;2023-04-24T21:10:10;7.80;99.90
13330;DHT22;6734;48.638;8.896;2023-04-24T21:15:03;7.80;99.90
13330;DHT22;6734;48.638;8.896;2023-04-24T21:24:47;8.50;99.90
13330;DHT22;6734;48.638;8.896;2023-04-24T21:27:13;8.40;99.90
13330;DHT22;6734;48.638;8.896;2023-04-24T21:41:49;8.70;99.90
13330;DHT22;6734;48.638;8.896;2023-04-24T21:44:15;8.80;99.90
13330;DHT22;6734;48.638;8.896;2023-04-24T21:46:40;8.40;99.90
13330;DHT22;6734;48.638;8.896;2023-04-24T21:51:33;8.30;99.90
13330;DHT22;6734;48.638;8.896;2023-04-24T21:53:58;8.00;99.90
13330;DHT22;6734;48.638;8.896;2023-04-24T21:56:24;8.10;99.90
13330;DHT22;6734;48.638;8.896;2023-04-24T22:01:16;8.10;99.90
13330;DHT22;6734;48.638;8.896;2023-04-24T22:06:07;8.10;99.90
13330;DHT22;6734;48.638;8.896;2023-04-24T22:08:33;8.10;99.90
13330;DHT22;6734;48.638;8.896;2023-04-24T22:13:25;7.80;99.90
13330;DHT22;6734;48.638;8.896;2023-04-24T22:18:17;7.80;99.90
13330;DHT22;6734;48.638;8.896;2023-04-24T22:20:43;7.80;99.90
13330;DHT22;6734;48.638;8.896;2023-04-24T22:25:36;7.70;99.90
13330;DHT22;6734;48.638;8.896;2023-04-24T22:40:13;7.60;99.90
13330;DHT22;6734;48.638;8.896;2023-04-24T22:52:24;7.50;99.90
13330;DHT22;6734;48.638;8.896;2023-04-24T22:54:53;7.40;99.90
13330;DHT22;6734;48.638;8.896;2023-04-24T22:57:18;7.40;99.90
13330;DHT22;6734;48.638;8.896;2023-04-24T22:59:44;7.30;99.90
13330;DHT22;6734;48.638;8.896;2023-04-24T23:04:35;7.50;99.90
13330;DHT22;6734;48.638;8.896;2023-04-24T23:07:01;7.40;99.90
13330;DHT22;6734;48.638;8.896;2023-04-24T23:14:18;7.40;99.90
13330;DHT22;6734;48.638;8.896;2023-04-24T23:16:44;7.40;99.90
13330;DHT22;6734;48.638;8.896;2023-04-24T23:19:10;7.50;99.90
13330;DHT22;6734;48.638;8.896;2023-04-24T23:21:36;7.70;99.90
13330;DHT22;6734;48.638;8.896;2023-04-24T23:28:53;7.60;99.90
13330;DHT22;6734;48.638;8.896;2023-04-24T23:33:45;7.10;99.90
13330;DHT22;6734;48.638;8.896;2023-04-24T23:36:11;6.90;99.90
13330;DHT22;6734;48.638;8.896;2023-04-24T23:41:03;6.80;99.90
13330;DHT22;6734;48.638;8.896;2023-04-24T23:43:29;6.80;99.90
13330;DHT22;6734;48.638;8.896;2023-04-24T23:48:20;7.10;99.90
13330;DHT22;6734;48.638;8.896;2023-04-24T23:50:46;7.40;99.90
13330;DHT22;6734;48.638;8.896;2023-04-24T23:55:37;7.40;99.90
